Time;durP1;ratioP1;P1;durP2;ratioP2;P2;SDS_P1;SDS_P2;PMS_P1;PMS_P2;Temp;Humidity;BMP_temperature;BMP_pressure;BME280_temperature;BME280_humidity;BME280_pressure;Samples;Min_cycle;Max_cycle;Signal;HPM_P1;HPM_P2
2021/11/15 00:02:00;;;;;;;32.45;19.00;;;9.00;73.00;;;;;;5059992;28;20406;-76
2021/11/15 00:04:26;;;;;;;34.50;18.60;;;9.10;72.60;;;;;;5058292;28;20448;-77
2021/11/15 00:06:51;;;;;;;32.58;18.35;;;9.10;71.60;;;;;;5047975;28;20377;-78
2021/11/15 00:09:17;;;;;;;27.75;17.92;;;9.10;70.10;;;;;;5065249;28;20400;-81
2021/11/15 00:11:43;;;;;;;31.42;19.50;;;9.20;69.20;;;;;;5062399;28;20397;-79
2021/11/15 00:14:09;;;;;;;32.60;19.30;;;9.20;69.70;;;;;;5042883;28;20894;-77
2021/11/15 00:16:35;;;;;;;31.50;19.60;;;9.20;70.10;;;;;;5062118;28;20372;-78
2021/11/15 00:19:01;;;;;;;29.53;19.27;;;9.30;67.70;;;;;;5073411;28;20378;-75
2021/11/15 00:21:27;;;;;;;31.70;19.30;;;9.60;61.80;;;;;;5059474;28;20469;-75
2021/11/15 00:23:52;;;;;;;32.10;18.75;;;9.50;60.40;;;;;;5075431;28;20416;-76
2021/11/15 00:26:19;;;;;;;28.95;18.55;;;9.60;60.50;;;;;;5073165;28;20382;-76
2021/11/15 00:28:44;;;;;;;34.20;19.70;;;9.80;58.00;;;;;;5043920;28;20451;-78
2021/11/15 00:31:10;;;;;;;32.30;19.40;;;9.70;58.10;;;;;;5061792;28;20427;-80
2021/11/15 00:33:35;;;;;;;29.50;18.70;;;9.50;60.20;;;;;;5060006;28;20480;-79
2021/11/15 00:36:02;;;;;;;25.93;17.33;;;9.60;60.00;;;;;;5041924;28;20692;-79
2021/11/15 00:38:27;;;;;;;35.45;20.45;;;9.60;59.20;;;;;;5059016;28;20378;-80
2021/11/15 00:40:53;;;;;;;31.45;19.30;;;9.50;60.20;;;;;;5059124;28;20798;-79
2021/11/15 00:43:18;;;;;;;30.30;19.17;;;9.40;62.00;;;;;;5059795;28;20463;-77
2021/11/15 00:45:44;;;;;;;31.23;19.07;;;9.50;61.80;;;;;;5062383;28;20389;-79
2021/11/15 00:48:10;;;;;;;31.00;18.10;;;9.60;59.50;;;;;;5043075;28;20389;-79
2021/11/15 00:50:37;;;;;;;28.58;17.10;;;9.80;57.00;;;;;;5061109;28;20416;-78
2021/11/15 00:53:03;;;;;;;30.58;17.83;;;10.00;55.00;;;;;;5062459;28;20750;-78
2021/11/15 00:55:29;;;;;;;30.20;17.45;;;10.00;55.00;;;;;;5057495;28;20413;-79
2021/11/15 00:57:55;;;;;;;29.13;17.50;;;10.10;54.30;;;;;;5059724;28;20426;-81
2021/11/15 01:00:25;;;;;;;29.02;16.67;;;10.10;53.70;;;;;;5057912;28;20402;-80
2021/11/15 01:02:52;;;;;;;29.05;17.90;;;10.10;53.70;;;;;;5057222;28;20408;-80
2021/11/15 01:05:18;;;;;;;33.17;17.92;;;10.00;54.00;;;;;;5057888;28;20394;-77
2021/11/15 01:07:44;;;;;;;31.50;17.80;;;9.90;54.80;;;;;;5058162;28;20693;-77
2021/11/15 01:10:12;;;;;;;30.25;17.42;;;9.80;55.50;;;;;;5057899;28;20480;-80
2021/11/15 01:12:38;;;;;;;32.20;18.40;;;9.80;56.70;;;;;;5056175;28;20401;-77
2021/11/15 01:15:06;;;;;;;28.83;17.60;;;9.80;55.90;;;;;;5058458;28;20459;-77
2021/11/15 01:17:32;;;;;;;31.40;18.10;;;9.80;56.60;;;;;;5057270;28;20464;-79
2021/11/15 01:19:58;;;;;;;29.80;17.45;;;9.90;55.70;;;;;;5059035;28;20420;-77
2021/11/15 01:22:24;;;;;;;28.58;17.63;;;9.80;56.10;;;;;;5057999;28;20496;-76
2021/11/15 01:24:49;;;;;;;33.10;19.00;;;9.80;56.20;;;;;;5059643;28;20408;-81
2021/11/15 01:27:15;;;;;;;29.52;17.58;;;9.70;57.40;;;;;;5060554;28;20381;-79
2021/11/15 01:29:40;;;;;;;34.13;18.38;;;9.80;57.00;;;;;;5063761;28;20809;-78
2021/11/15 01:32:06;;;;;;;27.33;16.80;;;9.90;55.00;;;;;;5063013;28;20469;-79
2021/11/15 01:34:32;;;;;;;28.98;16.80;;;10.00;53.70;;;;;;5066111;28;20390;-79
2021/11/15 01:36:57;;;;;;;28.65;16.95;;;9.90;53.70;;;;;;5066454;28;20393;-78
2021/11/15 01:39:24;;;;;;;32.05;18.88;;;9.90;54.30;;;;;;5065807;28;20439;-78
2021/11/15 01:41:51;;;;;;;27.90;17.38;;;9.90;54.60;;;;;;5066728;28;20381;-80
2021/11/15 01:44:17;;;;;;;34.63;18.90;;;9.90;54.20;;;;;;5066468;28;20471;-77
2021/11/15 01:46:42;;;;;;;34.70;19.83;;;9.80;53.00;;;;;;5045683;28;20394;-76
2021/11/15 01:49:08;;;;;;;37.30;20.10;;;9.80;53.60;;;;;;5066269;28;20428;-76
2021/11/15 01:51:33;;;;;;;32.83;18.80;;;9.70;54.60;;;;;;5071605;28;20399;-77
2021/11/15 01:53:59;;;;;;;32.53;17.87;;;9.80;54.10;;;;;;5070552;28;20407;-75
2021/11/15 01:56:27;;;;;;;35.17;18.20;;;9.80;53.20;;;;;;5060944;28;20401;-78
2021/11/15 01:58:52;;;;;;;31.10;18.92;;;9.80;54.00;;;;;;5066327;28;20398;-77
2021/11/15 02:01:18;;;;;;;32.63;18.43;;;9.80;54.30;;;;;;5067538;28;20389;-76
2021/11/15 02:03:44;;;;;;;32.50;18.50;;;9.80;54.00;;;;;;5060696;28;20501;-76
2021/11/15 02:06:10;;;;;;;33.70;19.33;;;9.80;54.30;;;;;;5047259;28;20789;-77
2021/11/15 02:08:37;;;;;;;32.15;18.05;;;9.70;54.40;;;;;;5043333;28;20391;-76
2021/11/15 02:11:03;;;;;;;34.03;17.90;;;9.60;56.00;;;;;;5052480;28;20391;-75
2021/11/15 02:13:29;;;;;;;31.80;19.30;;;9.60;56.70;;;;;;5059623;28;20404;-76
2021/11/15 02:15:55;;;;;;;33.65;18.40;;;9.50;57.20;;;;;;5052221;28;20401;-77
2021/11/15 02:18:22;;;;;;;30.23;17.63;;;9.60;55.70;;;;;;5066141;28;20409;-79
2021/11/15 02:20:54;;;;;;;31.90;17.73;;;9.70;54.80;;;;;;5060772;28;20408;-79
2021/11/15 02:23:22;;;;;;;31.10;17.77;;;9.70;54.80;;;;;;5063193;28;20485;-77
2021/11/15 02:25:51;;;;;;;30.25;18.20;;;9.60;54.90;;;;;;5062948;28;20431;-78
2021/11/15 02:28:17;;;;;;;27.73;16.90;;;9.60;55.60;;;;;;5062017;28;20449;-78
2021/11/15 02:30:43;;;;;;;31.65;18.08;;;9.60;55.10;;;;;;5063100;28;20457;-79
2021/11/15 02:33:11;;;;;;;29.38;18.13;;;9.60;55.50;;;;;;5063564;28;20412;-79
2021/11/15 02:35:37;;;;;;;28.52;17.60;;;9.60;55.00;;;;;;5063391;28;20883;-78
2021/11/15 02:38:04;;;;;;;32.35;17.90;;;9.60;55.50;;;;;;5062647;28;20390;-78
2021/11/15 02:40:30;;;;;;;30.00;17.13;;;9.60;55.40;;;;;;5060641;28;20930;-76
2021/11/15 02:42:57;;;;;;;33.20;18.38;;;9.60;55.40;;;;;;5059527;28;20408;-77
2021/11/15 02:45:24;;;;;;;37.00;17.65;;;9.70;54.80;;;;;;5062622;28;20474;-78
2021/11/15 02:47:50;;;;;;;30.02;17.35;;;9.70;54.40;;;;;;5045879;28;20394;-78
2021/11/15 02:50:18;;;;;;;29.65;17.35;;;9.70;54.30;;;;;;5063761;28;20481;-78
2021/11/15 02:52:47;;;;;;;30.77;17.20;;;9.70;54.10;;;;;;5057131;28;20825;-78
2021/11/15 02:55:13;;;;;;;30.65;17.25;;;9.60;54.00;;;;;;5057303;28;20385;-77
2021/11/15 02:57:38;;;;;;;30.27;17.10;;;9.50;55.10;;;;;;5044023;28;20446;-76
2021/11/15 03:00:15;;;;;;;28.73;17.27;;;9.50;56.20;;;;;;5037866;28;20395;-78
2021/11/15 03:02:41;;;;;;;32.80;18.10;;;9.40;56.20;;;;;;5049165;28;20739;-78
2021/11/15 03:05:07;;;;;;;28.70;17.13;;;9.40;58.20;;;;;;5045983;28;20387;-77
2021/11/15 03:07:32;;;;;;;31.05;16.75;;;9.30;58.50;;;;;;5039208;28;20402;-78
2021/11/15 03:09:58;;;;;;;28.10;16.60;;;9.40;58.80;;;;;;5019178;28;20399;-80
2021/11/15 03:12:33;;;;;;;34.80;17.63;;;9.50;57.10;;;;;;5048194;28;20393;-77
2021/11/15 03:14:59;;;;;;;34.47;17.65;;;9.50;56.40;;;;;;5027553;28;20422;-78
2021/11/15 03:17:25;;;;;;;32.15;17.40;;;9.50;55.90;;;;;;5047292;28;20379;-76
2021/11/15 03:19:51;;;;;;;33.30;18.07;;;9.40;55.90;;;;;;5046655;28;20397;-77
2021/11/15 03:22:17;;;;;;;31.57;18.03;;;9.40;55.60;;;;;;5077215;22;20433;-76
2021/11/15 03:24:42;;;;;;;29.75;16.73;;;9.40;56.00;;;;;;5058172;28;20400;-76
2021/11/15 03:27:09;;;;;;;33.47;18.60;;;9.50;54.70;;;;;;5060296;28;20393;-77
2021/11/15 03:29:34;;;;;;;33.08;18.95;;;9.40;55.00;;;;;;5065620;28;20396;-76
2021/11/15 03:32:00;;;;;;;31.40;17.30;;;9.20;56.90;;;;;;5069241;28;20382;-76
2021/11/15 03:34:25;;;;;;;33.93;18.73;;;9.30;56.10;;;;;;5055959;28;20396;-76
2021/11/15 03:36:51;;;;;;;37.37;18.47;;;9.30;56.90;;;;;;5054334;28;20397;-76
2021/11/15 03:39:17;;;;;;;32.10;17.70;;;9.40;55.50;;;;;;5046263;28;20941;-76
2021/11/15 03:41:45;;;;;;;32.15;18.27;;;9.40;56.50;;;;;;5053921;28;20870;-77
2021/11/15 03:44:11;;;;;;;35.28;18.63;;;9.30;58.10;;;;;;5054502;28;20402;-75
2021/11/15 03:46:39;;;;;;;31.80;17.98;;;9.30;57.80;;;;;;5036123;28;20385;-76
2021/11/15 03:49:05;;;;;;;33.65;18.30;;;9.50;55.30;;;;;;5036379;28;20385;-77
2021/11/15 03:51:30;;;;;;;34.50;19.13;;;9.50;55.70;;;;;;5053172;28;20423;-76
2021/11/15 03:53:56;;;;;;;35.65;19.85;;;9.40;56.60;;;;;;5036077;28;20405;-76
2021/11/15 03:56:26;;;;;;;35.20;19.92;;;9.30;57.90;;;;;;5035701;28;20408;-76
2021/11/15 03:58:52;;;;;;;35.78;20.45;;;9.30;57.60;;;;;;5049930;28;20397;-76
2021/11/15 04:01:22;;;;;;;37.33;21.00;;;9.20;58.40;;;;;;5035358;28;20447;-76
2021/11/15 04:03:47;;;;;;;37.80;20.25;;;9.40;55.70;;;;;;5053087;28;20405;-77
2021/11/15 04:06:27;;;;;;;33.45;19.05;;;9.50;55.30;;;;;;5036126;28;20392;-76
2021/11/15 04:08:55;;;;;;;35.22;19.92;;;9.60;53.40;;;;;;5051588;28;20398;-77
2021/11/15 04:11:22;;;;;;;33.93;19.27;;;9.70;53.00;;;;;;5053188;28;20492;-75
2021/11/15 04:13:51;;;;;;;32.95;18.60;;;9.60;53.40;;;;;;5053070;28;20727;-76
2021/11/15 04:16:17;;;;;;;31.98;18.17;;;9.70;54.20;;;;;;5053705;28;20483;-76
2021/11/15 04:18:47;;;;;;;33.10;19.60;;;9.60;53.30;;;;;;5052911;28;20393;-74
2021/11/15 04:21:14;;;;;;;36.47;19.42;;;9.60;53.30;;;;;;5053743;28;20418;-75
2021/11/15 04:23:40;;;;;;;35.92;19.20;;;9.50;53.80;;;;;;5034775;28;20416;-75
2021/11/15 04:26:07;;;;;;;36.60;19.48;;;9.50;54.10;;;;;;5065969;28;20403;-75
2021/11/15 04:28:33;;;;;;;34.20;20.17;;;9.40;54.80;;;;;;5066897;28;20401;-76
2021/11/15 04:30:59;;;;;;;31.10;18.00;;;9.40;54.90;;;;;;5039543;28;20799;-77
2021/11/15 04:33:25;;;;;;;36.33;20.03;;;9.50;55.00;;;;;;5035570;28;20383;-76
2021/11/15 04:35:52;;;;;;;37.05;19.10;;;9.40;56.00;;;;;;5032604;28;20774;-78
2021/11/15 04:38:17;;;;;;;36.42;20.10;;;9.50;55.30;;;;;;5055356;28;20377;-76
2021/11/15 04:40:43;;;;;;;37.23;21.23;;;9.40;55.60;;;;;;5043580;28;20418;-75
2021/11/15 04:43:10;;;;;;;38.20;20.43;;;9.40;55.60;;;;;;5034544;28;20443;-75
2021/11/15 04:45:36;;;;;;;35.72;20.10;;;9.30;57.20;;;;;;5032848;28;20395;-75
2021/11/15 04:48:02;;;;;;;37.78;20.60;;;9.50;54.40;;;;;;5018839;28;20420;-75
2021/11/15 04:50:28;;;;;;;34.78;19.70;;;9.50;53.90;;;;;;5051397;28;20762;-76
2021/11/15 04:52:54;;;;;;;38.28;21.67;;;9.50;53.60;;;;;;5053048;28;20949;-76
2021/11/15 04:55:21;;;;;;;39.42;21.17;;;9.50;53.90;;;;;;5057210;28;20397;-75
2021/11/15 04:57:47;;;;;;;40.55;21.45;;;9.40;54.70;;;;;;5058870;28;20405;-75
2021/11/15 05:00:20;;;;;;;39.13;21.70;;;9.30;55.70;;;;;;5057861;28;20902;-76
2021/11/15 05:02:47;;;;;;;39.13;22.05;;;9.30;55.40;;;;;;5040097;28;20420;-75
2021/11/15 05:05:14;;;;;;;39.42;21.08;;;9.30;55.90;;;;;;5053319;28;20386;-75
2021/11/15 05:07:39;;;;;;;38.78;21.17;;;9.30;55.60;;;;;;5052883;28;20393;-75
2021/11/15 05:10:06;;;;;;;38.13;20.70;;;9.40;54.90;;;;;;5027906;28;20406;-75
2021/11/15 05:12:35;;;;;;;41.55;21.55;;;9.40;55.00;;;;;;5046855;28;20397;-75
2021/11/15 05:15:03;;;;;;;40.75;20.65;;;9.60;53.40;;;;;;5052121;28;20400;-75
2021/11/15 05:17:29;;;;;;;38.20;20.85;;;9.60;52.30;;;;;;5051979;28;20397;-75
2021/11/15 05:19:55;;;;;;;36.70;18.90;;;9.60;52.30;;;;;;5034215;28;20416;-75
2021/11/15 05:22:20;;;;;;;35.08;20.33;;;9.60;53.00;;;;;;5034069;28;20401;-76
2021/11/15 05:24:47;;;;;;;40.53;21.60;;;9.50;53.70;;;;;;5052143;28;20397;-76
2021/11/15 05:27:12;;;;;;;39.33;21.85;;;9.50;53.00;;;;;;5053259;28;20387;-76
2021/11/15 05:29:38;;;;;;;36.87;20.93;;;9.40;54.60;;;;;;5052775;28;20874;-76
2021/11/15 05:32:04;;;;;;;37.93;20.50;;;9.40;54.30;;;;;;5052711;28;20392;-76
2021/11/15 05:34:30;;;;;;;38.13;20.88;;;9.40;54.20;;;;;;5038476;28;20789;-75
2021/11/15 05:36:56;;;;;;;37.53;20.95;;;9.30;54.80;;;;;;5056981;28;20394;-75
2021/11/15 05:39:22;;;;;;;38.20;20.47;;;9.30;56.00;;;;;;5055222;28;20770;-76
2021/11/15 05:41:47;;;;;;;39.70;21.13;;;9.30;55.10;;;;;;5053485;28;20488;-75
2021/11/15 05:44:13;;;;;;;40.20;21.57;;;9.30;55.40;;;;;;5053956;28;20448;-76
2021/11/15 05:46:39;;;;;;;39.63;21.50;;;9.30;55.60;;;;;;5056337;28;20754;-76
2021/11/15 05:49:05;;;;;;;38.40;21.17;;;9.40;54.80;;;;;;5053795;28;20401;-77
2021/11/15 05:51:30;;;;;;;37.20;20.80;;;9.50;53.60;;;;;;5054599;28;20396;-76
2021/11/15 05:53:57;;;;;;;39.55;20.90;;;9.30;55.40;;;;;;5035313;28;20420;-75
2021/11/15 05:56:23;;;;;;;38.95;20.92;;;9.50;53.60;;;;;;5054542;28;20477;-77
2021/11/15 05:58:48;;;;;;;37.83;19.87;;;9.50;53.40;;;;;;5054680;28;20806;-76
2021/11/15 06:01:14;;;;;;;42.20;20.33;;;9.50;53.00;;;;;;5033909;28;20762;-75
2021/11/15 06:03:40;;;;;;;38.40;19.80;;;9.50;52.10;;;;;;5055855;28;20413;-75
2021/11/15 06:06:05;;;;;;;37.37;20.07;;;9.40;52.50;;;;;;5057814;28;20885;-76
2021/11/15 06:08:31;;;;;;;40.23;19.60;;;9.40;52.10;;;;;;5055161;28;20389;-76
2021/11/15 06:10:57;;;;;;;42.83;21.30;;;9.40;51.60;;;;;;5053145;28;20382;-76
2021/11/15 06:13:22;;;;;;;44.08;21.02;;;9.40;51.30;;;;;;5038949;28;20397;-76
2021/11/15 06:15:48;;;;;;;39.47;20.27;;;9.30;52.70;;;;;;5053943;28;20396;-75
2021/11/15 06:18:15;;;;;;;40.03;19.67;;;9.30;52.10;;;;;;5034779;28;20476;-76
2021/11/15 06:20:42;;;;;;;41.20;20.27;;;9.30;51.70;;;;;;5052262;28;20408;-75
2021/11/15 06:23:07;;;;;;;43.72;20.40;;;9.20;51.80;;;;;;5053237;28;20463;-76
2021/11/15 06:25:34;;;;;;;44.77;21.17;;;9.10;52.60;;;;;;5054788;28;20385;-77
2021/11/15 06:28:01;;;;;;;41.20;20.77;;;9.10;53.10;;;;;;5057713;28;20377;-76
2021/11/15 06:30:26;;;;;;;40.83;19.85;;;9.10;53.90;;;;;;5060971;28;20394;-76
2021/11/15 06:32:52;;;;;;;43.57;19.90;;;9.10;53.00;;;;;;5070067;28;20385;-76
2021/11/15 06:35:19;;;;;;;43.87;20.83;;;9.10;53.80;;;;;;5050281;28;20755;-77
2021/11/15 06:37:45;;;;;;;43.20;19.53;;;9.10;53.30;;;;;;5057752;28;20409;-75
2021/11/15 06:40:13;;;;;;;43.77;20.80;;;9.10;52.90;;;;;;5052478;28;20481;-76
2021/11/15 06:42:39;;;;;;;41.70;20.88;;;9.10;54.10;;;;;;5050979;28;20404;-75
2021/11/15 06:45:06;;;;;;;44.25;21.38;;;9.10;54.70;;;;;;5052805;28;20468;-75
2021/11/15 06:47:33;;;;;;;45.67;21.23;;;9.10;54.10;;;;;;5052654;28;20378;-76
2021/11/15 06:50:00;;;;;;;51.10;21.83;;;9.20;53.70;;;;;;5053428;28;20417;-76
2021/11/15 06:52:26;;;;;;;44.47;20.85;;;9.10;53.50;;;;;;5035143;28;20389;-76
2021/11/15 06:54:51;;;;;;;42.03;21.27;;;9.10;54.50;;;;;;5038208;28;20416;-74
2021/11/15 06:57:17;;;;;;;47.47;23.40;;;9.10;54.00;;;;;;5056730;28;20443;-76
2021/11/15 06:59:43;;;;;;;47.60;22.98;;;9.10;54.50;;;;;;5056281;28;20854;-76
2021/11/15 07:02:09;;;;;;;43.80;21.27;;;9.10;55.40;;;;;;5041066;28;20410;-76
2021/11/15 07:04:35;;;;;;;43.90;21.52;;;9.10;55.10;;;;;;5022614;28;20409;-76
2021/11/15 07:07:02;;;;;;;43.40;21.65;;;9.10;55.50;;;;;;5056287;28;20385;-75
2021/11/15 07:09:28;;;;;;;43.67;21.25;;;9.10;55.50;;;;;;5036851;28;20419;-75
2021/11/15 07:11:55;;;;;;;45.55;21.17;;;9.20;54.00;;;;;;5046609;28;20758;-76
2021/11/15 07:14:21;;;;;;;43.17;20.60;;;9.30;53.50;;;;;;5052295;28;20401;-76
2021/11/15 07:16:47;;;;;;;43.70;20.73;;;9.30;52.90;;;;;;5057350;28;20442;-77
2021/11/15 07:19:13;;;;;;;42.25;21.42;;;9.30;52.40;;;;;;5057559;28;20385;-76
2021/11/15 07:21:39;;;;;;;46.78;20.92;;;9.30;51.20;;;;;;5056717;28;20396;-77
2021/11/15 07:24:04;;;;;;;45.97;22.30;;;9.30;51.80;;;;;;5056925;28;20428;-76
2021/11/15 07:26:30;;;;;;;45.53;21.27;;;9.10;53.80;;;;;;5055433;28;20377;-76
2021/11/15 07:28:56;;;;;;;43.70;20.60;;;9.10;53.00;;;;;;5054746;28;20397;-76
2021/11/15 07:31:23;;;;;;;44.03;20.45;;;9.10;52.10;;;;;;5042223;28;20395;-77
2021/11/15 07:33:49;;;;;;;41.40;20.90;;;9.10;52.10;;;;;;5042481;28;20400;-76
2021/11/15 07:36:15;;;;;;;45.03;20.92;;;9.10;52.40;;;;;;5043780;28;20433;-76
2021/11/15 07:38:41;;;;;;;43.10;21.10;;;9.10;52.10;;;;;;5055047;28;20523;-75
2021/11/15 07:41:07;;;;;;;41.27;20.30;;;9.10;52.50;;;;;;5054682;28;20479;-75
2021/11/15 07:43:33;;;;;;;45.58;22.20;;;9.10;52.50;;;;;;5054408;28;20401;-75
2021/11/15 07:45:59;;;;;;;43.10;21.75;;;9.10;52.20;;;;;;5054084;28;20446;-75
2021/11/15 07:48:26;;;;;;;39.42;20.40;;;9.00;53.60;;;;;;5052498;28;20393;-73
2021/11/15 07:50:52;;;;;;;44.05;22.15;;;8.90;54.20;;;;;;5052373;28;20389;-74
2021/11/15 07:53:17;;;;;;;43.10;21.13;;;8.80;54.50;;;;;;5054202;28;20412;-74
2021/11/15 07:55:43;;;;;;;45.60;23.23;;;8.90;54.40;;;;;;5050969;28;20405;-73
2021/11/15 07:58:11;;;;;;;43.67;22.30;;;9.00;54.40;;;;;;5036141;28;20397;-75
2021/11/15 08:00:38;;;;;;;47.38;22.40;;;8.90;54.50;;;;;;5049260;28;20393;-74
2021/11/15 08:03:05;;;;;;;45.50;22.88;;;8.90;54.60;;;;;;5048233;28;20827;-74
2021/11/15 08:05:31;;;;;;;44.73;22.53;;;9.00;55.20;;;;;;5036076;28;20511;-75
2021/11/15 08:07:56;;;;;;;44.75;23.63;;;9.30;51.80;;;;;;5055047;28;20409;-76
2021/11/15 08:10:23;;;;;;;44.85;23.20;;;9.30;51.80;;;;;;5032012;28;20409;-75
2021/11/15 08:12:53;;;;;;;41.30;22.02;;;9.20;52.60;;;;;;5050860;28;20393;-76
2021/11/15 08:15:22;;;;;;;43.78;22.42;;;9.20;52.20;;;;;;5051453;28;20812;-76
2021/11/15 08:17:51;;;;;;;43.50;22.40;;;9.30;51.50;;;;;;5033960;28;20424;-76
2021/11/15 08:20:20;;;;;;;46.97;23.50;;;9.10;52.40;;;;;;5054048;28;20402;-76
2021/11/15 08:22:49;;;;;;;49.38;25.08;;;9.00;53.60;;;;;;5033946;28;20405;-76
2021/11/15 08:25:27;;;;;;;47.17;24.63;;;8.90;55.10;;;;;;5055521;28;20903;-76
2021/11/15 08:27:57;;;;;;;48.88;23.30;;;8.90;55.70;;;;;;5054944;28;20388;-76
2021/11/15 08:30:24;;;;;;;51.17;24.60;;;9.00;55.00;;;;;;5054417;28;20385;-77
2021/11/15 08:32:50;;;;;;;54.15;25.58;;;9.00;54.70;;;;;;5054201;28;20389;-75
2021/11/15 08:35:19;;;;;;;49.25;23.42;;;8.90;55.60;;;;;;5053127;28;20393;-74
2021/11/15 08:37:54;;;;;;;48.97;23.90;;;9.00;54.80;;;;;;5052450;28;20509;-76
2021/11/15 08:40:20;;;;;;;41.53;22.40;;;9.00;55.20;;;;;;5025350;28;20451;-75
2021/11/15 08:42:47;;;;;;;48.38;24.30;;;9.00;55.30;;;;;;5047497;28;20890;-75
2021/11/15 08:45:15;;;;;;;48.25;23.75;;;9.00;55.10;;;;;;5054740;28;20385;-75
2021/11/15 08:47:41;;;;;;;46.50;23.40;;;9.10;54.50;;;;;;5038945;28;20884;-75
2021/11/15 08:50:07;;;;;;;42.80;23.00;;;9.20;53.20;;;;;;5046821;28;20527;-75
2021/11/15 08:52:32;;;;;;;44.75;22.20;;;9.20;53.60;;;;;;5025272;28;20399;-75
2021/11/15 08:54:58;;;;;;;44.47;21.35;;;9.30;52.60;;;;;;5019986;28;20498;-78
2021/11/15 08:57:24;;;;;;;45.28;22.55;;;9.30;52.00;;;;;;5040595;28;20481;-76
2021/11/15 08:59:53;;;;;;;44.08;20.80;;;9.30;51.90;;;;;;5052506;28;20476;-76
2021/11/15 09:02:19;;;;;;;39.67;17.73;;;9.30;52.10;;;;;;5050625;28;20402;-76
2021/11/15 09:04:45;;;;;;;38.25;19.13;;;9.30;51.70;;;;;;5049681;28;20409;-76
2021/11/15 09:07:11;;;;;;;42.72;19.70;;;9.20;51.80;;;;;;5051069;28;20407;-76
2021/11/15 09:09:38;;;;;;;39.53;19.20;;;9.10;52.60;;;;;;5027292;28;20404;-75
2021/11/15 09:12:06;;;;;;;42.33;18.40;;;9.20;52.50;;;;;;5050993;28;20385;-74
2021/11/15 09:14:32;;;;;;;39.22;17.98;;;9.30;51.40;;;;;;5030025;28;20403;-73
2021/11/15 09:16:57;;;;;;;37.50;18.25;;;9.30;51.90;;;;;;5050124;28;20454;-75
2021/11/15 09:19:23;;;;;;;40.15;18.17;;;9.20;51.60;;;;;;5045461;28;20939;-75
2021/11/15 09:21:51;;;;;;;39.03;17.13;;;9.30;50.80;;;;;;5052648;28;20487;-74
2021/11/15 09:24:17;;;;;;;34.78;16.98;;;9.30;50.50;;;;;;5082366;22;20815;-76
2021/11/15 09:26:47;;;;;;;34.85;16.05;;;9.20;50.80;;;;;;5048697;28;20396;-77
2021/11/15 09:29:14;;;;;;;33.65;16.75;;;9.20;51.00;;;;;;5064645;28;20536;-76
2021/11/15 09:31:40;;;;;;;37.20;16.70;;;9.20;51.50;;;;;;5070389;28;20395;-76
2021/11/15 09:34:05;;;;;;;37.58;16.63;;;9.30;51.50;;;;;;5063506;28;20395;-77
2021/11/15 09:36:31;;;;;;;33.15;15.88;;;9.30;51.20;;;;;;5063286;28;20698;-76
2021/11/15 09:38:58;;;;;;;33.78;15.65;;;9.30;51.40;;;;;;5064693;28;20477;-76
2021/11/15 09:41:25;;;;;;;33.05;16.08;;;9.20;50.40;;;;;;5077279;28;20453;-77
2021/11/15 09:43:51;;;;;;;31.73;16.40;;;9.30;50.60;;;;;;5053084;28;20411;-76
2021/11/15 09:46:20;;;;;;;32.53;15.60;;;9.20;49.90;;;;;;5070703;28;20384;-75
2021/11/15 09:48:59;;;;;;;33.25;15.75;;;9.10;51.00;;;;;;5070599;28;20475;-77
2021/11/15 09:51:25;;;;;;;30.85;15.15;;;9.10;51.10;;;;;;5053469;28;20430;-77
2021/11/15 09:53:50;;;;;;;32.78;15.25;;;9.20;49.80;;;;;;5062574;28;20397;-76
2021/11/15 09:56:18;;;;;;;31.73;15.87;;;9.10;50.40;;;;;;5072790;28;20518;-76
2021/11/15 09:58:44;;;;;;;34.13;15.93;;;9.10;51.30;;;;;;5071237;28;20432;-78
2021/11/15 10:01:09;;;;;;;32.10;16.27;;;9.30;49.60;;;;;;5054095;28;20463;-77
2021/11/15 10:03:35;;;;;;;34.25;16.80;;;9.40;49.00;;;;;;5073928;28;20729;-78
2021/11/15 10:06:01;;;;;;;29.23;15.32;;;9.40;48.20;;;;;;5054970;28;20391;-77
2021/11/15 10:08:42;;;;;;;30.33;15.68;;;9.40;48.20;;;;;;5082347;28;20893;-77
2021/11/15 10:11:08;;;;;;;33.30;16.92;;;9.40;48.40;;;;;;5055083;28;20397;-77
2021/11/15 10:13:35;;;;;;;34.50;16.30;;;9.30;48.20;;;;;;5039740;28;20397;-77
2021/11/15 10:16:08;;;;;;;31.17;16.67;;;9.30;47.90;;;;;;5069239;28;20769;-76
2021/11/15 10:18:41;;;;;;;31.77;16.35;;;9.40;47.10;;;;;;5070788;28;20487;-76
2021/11/15 10:21:11;;;;;;;31.67;16.45;;;9.40;47.50;;;;;;5072003;28;20414;-76
2021/11/15 10:23:46;;;;;;;31.13;17.13;;;9.50;46.90;;;;;;5068387;28;20815;-75
2021/11/15 10:26:16;;;;;;;29.20;15.95;;;9.30;47.60;;;;;;5086130;28;20386;-77
2021/11/15 10:28:43;;;;;;;34.60;16.93;;;9.40;47.40;;;;;;5073489;28;20403;-76
2021/11/15 10:31:30;;;;;;;31.15;16.40;;;9.50;46.60;;;;;;5081098;28;20484;-78
2021/11/15 10:33:57;;;;;;;36.88;17.08;;;9.50;46.60;;;;;;5074831;28;20410;-79
2021/11/15 10:36:46;;;;;;;36.95;18.25;;;9.60;46.40;;;;;;5074860;28;20406;-78
2021/11/15 10:39:12;;;;;;;32.80;18.20;;;9.50;46.50;;;;;;5057316;28;20425;-77
2021/11/15 10:41:38;;;;;;;31.80;17.50;;;9.50;46.60;;;;;;5076250;28;20436;-76
2021/11/15 10:44:09;;;;;;;31.00;16.92;;;9.50;45.70;;;;;;5058256;28;20404;-78
2021/11/15 10:46:38;;;;;;;34.05;18.02;;;9.40;47.00;;;;;;5080956;28;20392;-77
2021/11/15 10:49:06;;;;;;;39.35;19.38;;;9.40;46.40;;;;;;5081139;28;20437;-77
2021/11/15 10:51:49;;;;;;;37.83;19.48;;;9.50;45.40;;;;;;5062481;28;20396;-77
2021/11/15 10:54:35;;;;;;;39.53;20.13;;;9.60;44.40;;;;;;5072658;28;20434;-77
2021/11/15 10:57:21;;;;;;;34.67;19.33;;;9.60;45.00;;;;;;5068098;28;20419;-77
2021/11/15 11:00:08;;;;;;;33.45;17.77;;;9.60;45.10;;;;;;5052506;28;20401;-79
2021/11/15 11:02:41;;;;;;;31.00;17.05;;;9.50;45.40;;;;;;5069923;28;20724;-78
2021/11/15 11:05:14;;;;;;;35.13;18.10;;;9.60;44.00;;;;;;5076358;28;20427;-77
2021/11/15 11:07:42;;;;;;;34.67;17.90;;;9.50;44.80;;;;;;5052766;28;20387;-78
2021/11/15 11:10:14;;;;;;;31.77;17.00;;;9.70;44.40;;;;;;5075288;28;20543;-78
2021/11/15 11:12:42;;;;;;;29.85;16.20;;;9.70;44.40;;;;;;5076588;28;20383;-79
2021/11/15 11:15:34;;;;;;;27.52;16.08;;;9.70;44.50;;;;;;5078574;28;20406;-79
2021/11/15 11:18:21;;;;;;;29.27;15.20;;;9.70;43.60;;;;;;5087838;28;20378;-79
2021/11/15 11:26:18;;;;;;;25.20;15.18;;;9.80;42.80;;;;;;5074109;28;20399;-78
2021/11/15 11:28:49;;;;;;;35.50;15.35;;;9.60;44.10;;;;;;5075099;28;20392;-79
2021/11/15 11:31:16;;;;;;;24.07;14.33;;;9.60;44.00;;;;;;5062251;28;20434;-79
2021/11/15 11:33:42;;;;;;;22.77;13.88;;;9.60;43.80;;;;;;5068825;28;20408;-76
2021/11/15 11:36:09;;;;;;;34.17;18.13;;;9.60;44.20;;;;;;5061179;28;20401;-78
2021/11/15 11:38:37;;;;;;;27.98;16.00;;;9.80;43.00;;;;;;5069787;28;20401;-79
2021/11/15 11:41:03;;;;;;;27.50;14.77;;;9.70;43.40;;;;;;5080878;28;20399;-75
2021/11/15 11:43:31;;;;;;;27.98;14.32;;;9.60;42.50;;;;;;5085782;28;20507;-77
2021/11/15 11:45:57;;;;;;;27.17;14.98;;;9.50;43.90;;;;;;5067800;28;20406;-77
2021/11/15 11:48:27;;;;;;;29.83;15.93;;;9.40;43.20;;;;;;5096443;28;20397;-78
2021/11/15 11:50:56;;;;;;;26.58;15.60;;;9.40;43.90;;;;;;5097537;28;20382;-76
2021/11/15 11:53:31;;;;;;;26.37;14.40;;;9.40;44.20;;;;;;5078580;28;20380;-79
2021/11/15 11:56:11;;;;;;;27.35;15.68;;;9.50;41.50;;;;;;5064921;28;20407;-78
2021/11/15 11:58:39;;;;;;;27.27;16.40;;;9.40;41.70;;;;;;5065031;28;20411;-79
2021/11/15 12:01:06;;;;;;;21.65;14.50;;;9.40;42.70;;;;;;5075599;28;20392;-77
2021/11/15 12:03:32;;;;;;;24.77;14.23;;;9.40;42.10;;;;;;5082116;28;20408;-77
2021/11/15 12:06:30;;;;;;;28.80;14.68;;;9.60;41.80;;;;;;5077183;28;20391;-78
2021/11/15 12:08:58;;;;;;;23.38;13.77;;;9.60;41.60;;;;;;5066573;28;20446;-76
2021/11/15 12:11:25;;;;;;;23.88;13.98;;;9.50;41.80;;;;;;5061859;28;20404;-78
2021/11/15 12:13:51;;;;;;;24.35;14.90;;;9.50;42.20;;;;;;5075065;28;20394;-77
2021/11/15 12:16:17;;;;;;;26.08;13.43;;;9.40;42.10;;;;;;5067555;28;20453;-79
2021/11/15 12:19:00;;;;;;;27.65;13.98;;;9.50;42.10;;;;;;5075748;28;20449;-78
2021/11/15 12:21:37;;;;;;;26.88;15.00;;;9.50;41.50;;;;;;5070527;28;20410;-79
2021/11/15 12:24:16;;;;;;;26.15;14.15;;;9.40;42.50;;;;;;5088428;28;20475;-80
2021/11/15 12:26:43;;;;;;;27.35;14.55;;;9.30;42.50;;;;;;5090342;28;20392;-79
2021/11/15 12:29:28;;;;;;;27.42;14.65;;;9.30;42.70;;;;;;5083475;28;20383;-80
2021/11/15 12:32:02;;;;;;;23.27;13.10;;;9.20;42.50;;;;;;5044651;28;20402;-79
2021/11/15 12:34:33;;;;;;;23.90;14.80;;;9.60;40.80;;;;;;5093245;28;20378;-78
2021/11/15 12:37:01;;;;;;;23.98;13.60;;;9.40;41.20;;;;;;5075800;28;20922;-79
2021/11/15 12:39:30;;;;;;;28.25;13.90;;;9.60;41.00;;;;;;5090200;28;20410;-78
2021/11/15 12:41:58;;;;;;;31.60;15.35;;;9.70;40.80;;;;;;5080400;28;20413;-78
2021/11/15 12:44:29;;;;;;;28.75;13.52;;;9.70;41.00;;;;;;5050612;28;20411;-78